Wetterstation-Oberesslingen
Wetterdaten: aktuell Sonntag, 21.07.2019 10:40
Datum Zeit Temperatur Temp+5cm Luftfeuchte Luftdruck Regen Wind Richtung Richtung Sonnenschein ET Solar Taupunkt Windchill Windben
21.07.2019 10:40 23,7 C 27,8 C 72 % 1020,1 hPa 0,0 l/m 6,9 km/h (2 Bft) W-SW 238 40 min 0,229 mm 339 W/m 18,3 C 23,7 C 14,0 km/h (3 Bft)
21.07.2019 09:40 21,5 C 28,3 C 86 % 1019,7 hPa 0,0 l/m 1,5 km/h (1 Bft) O-SO 119 10 min 0,127 mm 547 W/m 19,1 C 21,5 C 2,7 km/h (1 Bft)
21.07.2019 08:40 20,1 C 27,2 C 88 % 1019,5 hPa 0,0 l/m 1,9 km/h (1 Bft) SO 129 5 min 0,051 mm 461 W/m 18,0 C 20,1 C 4,3 km/h (1 Bft)
21.07.2019 07:40 18,9 C 19,4 C 93 % 1019,2 hPa 0,0 l/m 2,9 km/h (1 Bft) O 96 0 min 0,025 mm 139 W/m 17,7 C 18,9 C 6,0 km/h (2 Bft)
21.07.2019 06:40 18,2 C 17,2 C 95 % 1018,4 hPa 0,2 l/m 1,3 km/h (1 Bft) N-NO 32 0 min 0,000 mm 30 W/m 17,4 C 18,2 C 4,3 km/h (1 Bft)
21.07.2019 05:40 18,4 C 17,8 C 93 % 1017,8 hPa 2,8 l/m 1,2 km/h (1 Bft) N-NO 31 0 min 0,000 mm 0 W/m 17,2 C 18,4 C 2,7 km/h (1 Bft)
21.07.2019 04:40 18,9 C 18,3 C 92 % 1017,6 hPa 0,8 l/m 3,3 km/h (1 Bft) O-SO 119 0 min 0,000 mm 0 W/m 17,6 C 18,9 C 10,8 km/h (2 Bft)
21.07.2019 03:40 19,4 C 18,3 C 88 % 1017,7 hPa 2,4 l/m 5,1 km/h (1 Bft) NW 320 0 min 0,000 mm 0 W/m 17,4 C 19,4 C 14,0 km/h (3 Bft)
21.07.2019 02:40 21,8 C 19,4 C 64 % 1016,6 hPa 0,0 l/m 1,1 km/h (1 Bft) NW 307 0 min 0,000 mm 0 W/m 14,7 C 21,8 C 1,1 km/h (1 Bft)
21.07.2019 01:40 22,1 C 19,4 C 61 % 1015,7 hPa 0,0 l/m 1,1 km/h (1 Bft) SW 233 0 min 0,000 mm 0 W/m 14,2 C 22,1 C 1,1 km/h (1 Bft)
21.07.2019 00:40 22,4 C 20,0 C 60 % 1015,4 hPa 0,0 l/m 1,1 km/h (1 Bft) S 171 0 min 0,000 mm 0 W/m 14,2 C 22,4 C 1,1 km/h (1 Bft)
20.07.2019 23:40 23,7 C 20,6 C 54 % 1014,8 hPa 0,0 l/m 2,3 km/h (1 Bft) O-SO 110 0 min 0,025 mm 0 W/m 13,8 C 23,7 C 6,0 km/h (2 Bft)
20.07.2019 22:40 25,1 C 21,1 C 49 % 1014,4 hPa 0,0 l/m 1,2 km/h (1 Bft) N 355 0 min 0,051 mm 0 W/m 13,6 C 25,1 C 2,7 km/h (1 Bft)
20.07.2019 21:40 27,9 C 25,0 C 37 % 1013,9 hPa 0,0 l/m 5,9 km/h (2 Bft) SW 232 0 min 0,101 mm 0 W/m 11,8 C 27,9 C 12,4 km/h (2 Bft)
20.07.2019 20:40 29,2 C 26,7 C 35 % 1013,1 hPa 0,0 l/m 6,3 km/h (2 Bft) W 279 0 min 0,153 mm 21 W/m 12,1 C 29,2 C 12,4 km/h (2 Bft)
20.07.2019 19:40 30,6 C 29,4 C 32 % 1012,4 hPa 0,0 l/m 9,1 km/h (2 Bft) W-NW 284 15 min 0,254 mm 139 W/m 12,0 C 30,6 C 17,2 km/h (3 Bft)
20.07.2019 18:40 31,4 C 31,1 C 29 % 1012,3 hPa 0,0 l/m 11,2 km/h (2 Bft) W-NW 293 40 min 0,406 mm 174 W/m 11,2 C 31,4 C 23,7 km/h (4 Bft)
20.07.2019 17:40 32,4 C 36,1 C 27 % 1012,3 hPa 0,0 l/m 7,7 km/h (2 Bft) W-NW 297 50 min 0,534 mm 381 W/m 11,0 C 32,4 C 18,8 km/h (3 Bft)
20.07.2019 16:40 32,7 C 38,9 C 30 % 1012,5 hPa 0,0 l/m 9,1 km/h (2 Bft) SW 225 60 min 0,584 mm 659 W/m 12,8 C 32,7 C 23,7 km/h (4 Bft)
20.07.2019 15:40 32,7 C 40,0 C 31 % 1012,6 hPa 0,0 l/m 13,2 km/h (3 Bft) W-SW 239 55 min 0,533 mm 745 W/m 13,3 C 32,7 C 22,1 km/h (4 Bft)
20.07.2019 14:40 32,6 C 42,2 C 31 % 1012,9 hPa 0,0 l/m 9,6 km/h (2 Bft) N-NW 344 40 min 0,508 mm 1046 W/m 13,2 C 32,6 C 20,4 km/h (4 Bft)
20.07.2019 13:40 31,2 C 38,3 C 38 % 1013,0 hPa 0,0 l/m 1,1 km/h (1 Bft) S-SO 147 60 min 0,407 mm 649 W/m 15,2 C 31,2 C 1,1 km/h (1 Bft)
20.07.2019 12:40 28,8 C 34,4 C 46 % 1013,4 hPa 0,0 l/m 1,1 km/h (1 Bft) S-SW 196 45 min 0,431 mm 619 W/m 16,0 C 28,8 C 1,1 km/h (1 Bft)
20.07.2019 11:40 27,7 C 37,2 C 51 % 1013,7 hPa 0,0 l/m 1,1 km/h (1 Bft) O-SO 118 40 min 0,381 mm 798 W/m 16,6 C 27,7 C 1,1 km/h (1 Bft)
20.07.2019 11:00 26,8 C 36,7 C 55 % 1013,8 hPa 0,0 l/m 1,1 km/h (1 Bft) SO 137 0 min 0,381 mm 700 W/m 17,0 C 26,8 C 1,1 km/h (1 Bft)
_ Min-Zeit 06:30 06:05 17:40 17:45 - 11:00 - - - - - 17:40 06:30 11:00
Minimum _ 18,0 C 16,7 C 27 % 1012,0 hPa - 1,1 km/h (1 Bft) - - - - - 11,0 C 18,0 C 1,1 km/h (1 Bft)
_ Max-Zeit 15:10 15:05 06:15 10:35 05:25 15:40 - - 11:00 16:00 14:40 10:20 15:10 14:50
Maximum _ 33,3 C 43,3 C 95 % 1020,1 hPa 1,4 l/m 13,2 km/h
W-SW (3 Bft)
- - 5 min 0,584 mm 1046 W/m 19,5 C 33,3 C 26,9 km/h
W-SW (4 Bft)
Durchschnitt _ 25,6 C 27,8 C 58 % 1015,2 hPa #6,2 l/m 3,6 km/h (1 Bft) O-SO - #55 min. #0,432 mm 202 W/m 15,2 C 25,6 C 7,6 km/h (2 Bft)